createdAt,value
2019-02-25T00:00:40.473Z,73.27
2019-02-25T00:03:07.869Z,74.60
2019-02-25T00:05:35.318Z,76.03
2019-02-25T00:08:02.648Z,74.00
2019-02-25T00:10:31.280Z,73.93
2019-02-25T00:12:58.834Z,76.37
2019-02-25T00:15:26.127Z,75.67
2019-02-25T00:17:53.554Z,74.80
2019-02-25T00:20:20.909Z,74.20
2019-02-25T00:22:49.581Z,74.80
2019-02-25T00:25:16.929Z,74.67
2019-02-25T00:27:44.306Z,79.03
2019-02-25T00:30:12.428Z,74.37
2019-02-25T00:32:40.851Z,72.87
2019-02-25T00:35:08.216Z,70.53
2019-02-25T00:37:35.623Z,69.67
2019-02-25T00:40:03.150Z,71.83
2019-02-25T00:42:30.634Z,71.30
2019-02-25T00:44:58.101Z,73.37
2019-02-25T00:47:25.489Z,72.33
2019-02-25T00:49:54.478Z,71.03
2019-02-25T00:52:21.899Z,73.40
2019-02-25T00:54:49.507Z,71.50
2019-02-25T00:57:18.499Z,72.73
2019-02-25T00:59:45.980Z,69.43
2019-02-25T01:02:13.326Z,70.17
2019-02-25T01:04:40.804Z,67.33
2019-02-25T01:07:08.322Z,65.27
2019-02-25T01:09:35.736Z,65.97
2019-02-25T01:12:03.189Z,61.33
2019-02-25T01:14:30.554Z,60.87
2019-02-25T01:16:57.878Z,59.00
2019-02-25T01:19:25.256Z,59.60
2019-02-25T01:21:52.826Z,60.07
2019-02-25T01:24:20.219Z,67.47
2019-02-25T01:26:49.205Z,66.07
2019-02-25T01:29:16.694Z,66.97
2019-02-25T01:31:44.430Z,66.07
2019-02-25T01:34:13.082Z,70.80
2019-02-25T01:36:40.508Z,69.93
2019-02-25T01:39:08.832Z,77.83
2019-02-25T01:41:36.285Z,79.60
2019-02-25T01:44:03.646Z,83.73
2019-02-25T01:46:31.004Z,86.70
2019-02-25T01:48:58.355Z,89.70
2019-02-25T01:51:25.781Z,83.97
2019-02-25T01:53:53.166Z,81.50
2019-02-25T01:56:20.563Z,79.70
2019-02-25T01:58:48.087Z,72.17
2019-02-25T02:01:15.514Z,64.93
2019-02-25T02:03:42.888Z,66.20
2019-02-25T02:06:10.263Z,61.40
2019-02-25T02:08:37.739Z,65.43
2019-02-25T02:11:05.157Z,66.47
2019-02-25T02:13:32.512Z,70.00
2019-02-25T02:15:59.985Z,65.63
2019-02-25T02:18:27.374Z,66.60
2019-02-25T02:20:54.679Z,66.83
2019-02-25T02:23:22.039Z,66.40
2019-02-25T02:25:49.402Z,67.93
2019-02-25T02:28:16.848Z,67.37
2019-02-25T02:30:44.213Z,64.60
2019-02-25T02:33:11.597Z,62.63
2019-02-25T02:35:39.948Z,62.90
2019-02-25T02:38:07.328Z,61.97
2019-02-25T02:40:34.672Z,62.63
2019-02-25T02:43:02.112Z,57.93
2019-02-25T02:45:37.614Z,59.40
2019-02-25T02:48:09.526Z,60.30
2019-02-25T02:50:36.861Z,61.43
2019-02-25T02:53:04.545Z,64.03
2019-02-25T02:55:31.918Z,63.07
2019-02-25T02:57:59.443Z,65.10
2019-02-25T03:00:26.816Z,60.70
2019-02-25T03:02:54.235Z,53.83
2019-02-25T03:05:21.588Z,52.53
2019-02-25T03:07:49.013Z,50.90
2019-02-25T03:10:17.167Z,50.53
2019-02-25T03:12:44.519Z,50.30
2019-02-25T03:15:13.252Z,52.83
2019-02-25T03:17:40.587Z,51.23
2019-02-25T03:20:09.296Z,49.43
2019-02-25T03:22:36.660Z,49.00
2019-02-25T03:25:07.819Z,44.10
2019-02-25T03:27:35.219Z,43.50
2019-02-25T03:30:03.100Z,42.43
2019-02-25T03:32:30.468Z,40.23
2019-02-25T03:34:57.843Z,39.27
2019-02-25T03:37:25.187Z,43.73
2019-02-25T03:39:52.630Z,45.53
2019-02-25T03:42:20.025Z,47.37
2019-02-25T03:44:47.373Z,49.67
2019-02-25T03:47:14.700Z,49.93
2019-02-25T03:49:42.043Z,48.57
2019-02-25T03:52:09.469Z,48.03
2019-02-25T03:54:36.908Z,44.63
2019-02-25T03:57:04.488Z,45.37
2019-02-25T03:59:31.872Z,43.47
2019-02-25T04:01:59.861Z,40.70
2019-02-25T04:04:27.188Z,40.23
2019-02-25T04:06:54.541Z,37.37
2019-02-25T04:09:21.895Z,38.70
2019-02-25T04:11:49.308Z,37.87
2019-02-25T04:14:18.656Z,39.33
2019-02-25T04:16:46.083Z,39.20
2019-02-25T04:19:13.532Z,39.70
2019-02-25T04:21:40.867Z,42.80
2019-02-25T04:24:08.402Z,43.90
2019-02-25T04:26:35.839Z,45.03
2019-02-25T04:29:03.181Z,44.27
2019-02-25T04:31:30.536Z,46.00
2019-02-25T04:33:57.963Z,46.50
2019-02-25T04:36:25.409Z,41.60
2019-02-25T04:38:52.837Z,39.53
2019-02-25T04:41:20.194Z,39.03
2019-02-25T04:43:47.619Z,37.77
2019-02-25T04:46:15.946Z,36.13
2019-02-25T04:48:43.347Z,32.63
2019-02-25T04:51:10.775Z,34.63
2019-02-25T04:53:38.282Z,36.33
2019-02-25T04:56:05.675Z,35.50
2019-02-25T04:58:33.022Z,35.30
2019-02-25T05:01:00.468Z,34.27
2019-02-25T05:03:29.358Z,30.47
2019-02-25T05:05:56.752Z,31.50
2019-02-25T05:08:24.175Z,29.67
2019-02-25T05:10:51.551Z,31.30
2019-02-25T05:13:18.876Z,30.30
2019-02-25T05:15:46.271Z,29.73
2019-02-25T05:18:13.703Z,29.40
2019-02-25T05:20:41.085Z,29.30
2019-02-25T05:23:08.523Z,26.53
2019-02-25T05:25:35.960Z,27.50
2019-02-25T05:28:03.365Z,27.17
2019-02-25T05:30:31.185Z,27.27
2019-02-25T05:32:59.785Z,26.50
2019-02-25T05:35:27.224Z,27.17
2019-02-25T05:37:54.955Z,27.83
2019-02-25T05:40:22.293Z,27.93
2019-02-25T05:42:49.808Z,29.00
2019-02-25T05:45:17.295Z,28.10
2019-02-25T05:47:44.639Z,27.23
2019-02-25T05:50:13.122Z,30.00
2019-02-25T05:52:40.592Z,31.03
2019-02-25T05:55:09.579Z,34.80
2019-02-25T05:57:36.908Z,48.00
2019-02-25T06:00:06.033Z,57.20
2019-02-25T06:02:33.465Z,57.53
2019-02-25T06:05:00.873Z,55.83
2019-02-25T06:07:28.340Z,56.90
2019-02-25T06:09:55.732Z,57.20
2019-02-25T06:12:23.054Z,57.17
2019-02-25T06:14:50.487Z,55.13
2019-02-25T06:17:17.912Z,59.23
2019-02-25T06:19:45.396Z,59.27
2019-02-25T06:22:12.869Z,57.47
2019-02-25T06:24:40.291Z,58.70
2019-02-25T06:27:07.696Z,55.17
2019-02-25T06:29:35.133Z,50.80
2019-02-25T06:32:02.516Z,51.95
2019-02-25T06:34:30.004Z,51.13
2019-02-25T06:36:57.414Z,42.50
2019-02-25T06:39:24.835Z,41.87
2019-02-25T06:41:52.318Z,52.23
2019-02-25T06:44:20.141Z,56.10
2019-02-25T06:46:47.602Z,49.40
2019-02-25T06:49:14.958Z,46.83
2019-02-25T06:51:42.339Z,45.43
2019-02-25T06:54:09.849Z,50.50
2019-02-25T06:56:37.281Z,50.10
2019-02-25T06:59:04.838Z,51.97
2019-02-25T07:01:32.294Z,52.67
2019-02-25T07:04:10.272Z,53.27
2019-02-25T07:06:43.553Z,51.23
2019-02-25T07:09:12.817Z,51.30
2019-02-25T07:11:47.680Z,49.63
2019-02-25T07:14:31.763Z,47.77
2019-02-25T07:17:00.767Z,48.73
2019-02-25T07:19:32.881Z,46.50
2019-02-25T07:22:05.975Z,44.77
2019-02-25T07:24:35.117Z,40.00
2019-02-25T07:27:07.013Z,36.10
2019-02-25T07:29:48.361Z,35.90
2019-02-25T07:32:17.586Z,31.53
2019-02-25T07:34:52.188Z,27.63
2019-02-25T07:37:33.051Z,25.87
2019-02-25T07:40:17.406Z,24.90
2019-02-25T07:42:51.850Z,25.23
2019-02-25T07:45:20.969Z,23.90
2019-02-25T07:47:52.882Z,23.57
2019-02-25T07:50:30.913Z,22.47
2019-02-25T07:53:02.737Z,22.47
2019-02-25T07:55:37.581Z,21.60
2019-02-25T07:58:06.577Z,21.03
2019-02-25T08:00:35.527Z,21.07
2019-02-25T08:03:04.546Z,21.27
2019-02-25T08:05:33.627Z,20.17
2019-02-25T08:08:08.752Z,20.30
2019-02-25T08:10:54.187Z,22.87
2019-02-25T08:13:26.341Z,21.90
2019-02-25T08:15:58.183Z,24.47
2019-02-25T08:18:37.079Z,21.83
2019-02-25T08:21:18.343Z,22.43
2019-02-25T08:23:53.697Z,24.57
2019-02-25T08:26:23.015Z,25.53
2019-02-25T08:28:52.005Z,23.63
2019-02-25T08:31:33.186Z,21.97
2019-02-25T08:34:05.200Z,23.40
2019-02-25T08:37:01.800Z,23.00
2019-02-25T08:39:26.423Z,23.93
2019-02-25T08:41:55.487Z,23.83
2019-02-25T08:44:27.110Z,23.73
2019-02-25T08:46:56.192Z,23.13
2019-02-25T08:49:25.189Z,21.60
2019-02-25T08:51:52.543Z,20.30
2019-02-25T08:54:20.056Z,20.10
2019-02-25T08:56:47.417Z,20.50
2019-02-25T08:59:14.833Z,21.13
2019-02-25T09:01:42.286Z,22.03
2019-02-25T09:04:09.725Z,20.53
2019-02-25T09:06:37.196Z,18.80
2019-02-25T09:09:05.392Z,18.20
2019-02-25T09:11:32.809Z,18.00
2019-02-25T09:14:00.219Z,18.73
2019-02-25T09:16:27.975Z,18.07
2019-02-25T09:18:55.341Z,18.47
2019-02-25T09:21:31.385Z,18.73
2019-02-25T09:23:51.910Z,18.93
2019-02-25T09:26:19.328Z,19.97
2019-02-25T09:28:46.765Z,22.00
2019-02-25T09:31:14.099Z,21.97
2019-02-25T09:33:41.811Z,21.10
2019-02-25T09:36:09.259Z,22.70
2019-02-25T09:38:36.633Z,21.17
2019-02-25T09:41:05.985Z,20.80
2019-02-25T09:43:33.363Z,20.83
2019-02-25T09:46:00.780Z,23.57
2019-02-25T09:48:28.588Z,23.53
2019-02-25T09:50:56.100Z,21.33
2019-02-25T09:53:23.413Z,23.43
2019-02-25T09:55:51.669Z,21.07
2019-02-25T09:58:20.510Z,22.47
2019-02-25T10:00:48.908Z,21.90
2019-02-25T10:03:16.242Z,22.63
2019-02-25T10:05:43.630Z,20.03
2019-02-25T10:08:11.046Z,19.73
2019-02-25T10:10:39.578Z,21.90
2019-02-25T10:13:07.021Z,20.13
2019-02-25T10:15:34.340Z,20.43
2019-02-25T10:18:01.682Z,23.10
2019-02-25T10:20:29.054Z,22.87
2019-02-25T10:22:56.404Z,21.27
2019-02-25T10:25:23.729Z,23.43
2019-02-25T10:27:51.181Z,22.60
2019-02-25T10:30:20.200Z,22.00
2019-02-25T10:32:47.594Z,19.63
2019-02-25T10:35:16.586Z,19.10
2019-02-25T10:37:46.894Z,22.93
2019-02-25T10:40:15.533Z,20.53
2019-02-25T10:42:43.635Z,24.43
2019-02-25T10:45:13.489Z,24.13
2019-02-25T10:47:42.009Z,24.30
2019-02-25T10:50:11.636Z,22.20
2019-02-25T10:52:40.788Z,26.90
2019-02-25T10:55:09.631Z,28.03
2019-02-25T10:57:37.008Z,25.07
2019-02-25T11:00:09.525Z,31.20
2019-02-25T11:02:44.184Z,26.73
2019-02-25T11:05:10.101Z,24.20
2019-02-25T11:07:39.670Z,27.00
2019-02-25T11:10:09.596Z,25.30
2019-02-25T11:12:37.050Z,26.73
2019-02-25T11:15:07.376Z,27.57
2019-02-25T11:17:35.548Z,29.07
2019-02-25T11:20:03.793Z,29.43
2019-02-25T11:22:32.139Z,28.40
2019-02-25T11:24:59.510Z,29.90
2019-02-25T11:27:28.492Z,29.23
2019-02-25T11:29:56.032Z,33.13
2019-02-25T11:32:24.406Z,28.90
2019-02-25T11:34:52.569Z,28.83
2019-02-25T11:37:22.473Z,29.13
2019-02-25T11:39:50.276Z,28.77
2019-02-25T11:42:20.571Z,28.00
2019-02-25T11:44:47.103Z,27.43
2019-02-25T11:47:14.454Z,26.43
2019-02-25T11:49:41.812Z,24.43
2019-02-25T11:52:09.224Z,25.67
2019-02-25T11:54:36.911Z,23.70
2019-02-25T11:57:06.142Z,23.73
2019-02-25T11:59:34.853Z,24.27
2019-02-25T12:02:02.202Z,25.87
2019-02-25T12:04:29.521Z,26.17
2019-02-25T12:06:56.981Z,26.10
2019-02-25T12:09:24.786Z,25.50
2019-02-25T12:11:52.137Z,25.30
2019-02-25T12:14:19.642Z,25.53
2019-02-25T12:16:47.180Z,26.67
2019-02-25T12:19:17.894Z,24.37
2019-02-25T12:21:43.693Z,24.10
2019-02-25T12:24:11.154Z,22.97
2019-02-25T12:26:38.510Z,23.50
2019-02-25T12:29:10.904Z,22.53
2019-02-25T12:31:34.873Z,22.50
2019-02-25T12:34:02.281Z,23.63
2019-02-25T12:36:29.606Z,24.10
2019-02-25T12:38:57.061Z,23.87
2019-02-25T12:41:27.416Z,26.33
2019-02-25T12:43:54.802Z,24.33
2019-02-25T12:46:22.292Z,22.93
2019-02-25T12:48:49.779Z,22.53
2019-02-25T12:51:17.159Z,23.10
2019-02-25T12:53:44.669Z,25.47
2019-02-25T12:56:12.061Z,22.20
2019-02-25T12:58:39.468Z,23.03
2019-02-25T13:01:06.847Z,24.20
2019-02-25T13:03:34.309Z,24.53
2019-02-25T13:06:01.769Z,21.70
2019-02-25T13:08:29.111Z,22.10
2019-02-25T13:10:56.612Z,18.90
2019-02-25T13:13:24.052Z,20.83
2019-02-25T13:15:51.567Z,21.73
2019-02-25T13:18:19.060Z,21.03
2019-02-25T13:20:46.386Z,20.17
2019-02-25T13:23:13.724Z,19.90
2019-02-25T13:25:41.141Z,22.13
2019-02-25T13:28:08.559Z,23.03
2019-02-25T13:30:36.095Z,24.20
2019-02-25T13:33:03.415Z,22.90
2019-02-25T13:35:30.817Z,24.87
2019-02-25T13:37:58.207Z,23.60
2019-02-25T13:40:25.530Z,24.30
2019-02-25T13:42:53.035Z,20.97
2019-02-25T13:45:20.943Z,23.53
2019-02-25T13:47:48.295Z,21.87
2019-02-25T13:50:16.075Z,22.57
2019-02-25T13:52:48.454Z,21.77
2019-02-25T13:55:12.779Z,24.10
2019-02-25T13:57:40.571Z,23.87
2019-02-25T14:00:09.607Z,24.13
2019-02-25T14:02:37.206Z,26.30
2019-02-25T14:05:05.624Z,23.73
2019-02-25T14:07:34.289Z,25.23
2019-02-25T14:10:01.851Z,24.93
2019-02-25T14:12:29.303Z,24.57
2019-02-25T14:14:56.633Z,22.40
2019-02-25T14:17:26.304Z,23.70
2019-02-25T14:19:54.185Z,23.87
2019-02-25T14:22:21.578Z,23.50
2019-02-25T14:24:50.257Z,22.13
2019-02-25T14:27:27.155Z,20.47
2019-02-25T14:29:55.706Z,20.47
2019-02-25T14:32:23.186Z,22.97
2019-02-25T14:34:53.462Z,23.80
2019-02-25T14:37:21.031Z,26.67
2019-02-25T14:39:51.616Z,25.87
2019-02-25T14:42:18.871Z,27.07
2019-02-25T14:44:46.682Z,29.20
2019-02-25T14:47:20.470Z,29.57
2019-02-25T14:49:43.104Z,27.77
2019-02-25T14:52:10.610Z,28.93
2019-02-25T14:54:38.037Z,28.00
2019-02-25T14:57:05.407Z,29.60
2019-02-25T14:59:32.750Z,26.97
2019-02-25T15:02:02.156Z,27.30
2019-02-25T15:04:29.278Z,28.50
2019-02-25T15:06:56.697Z,27.20
2019-02-25T15:09:24.040Z,23.20
2019-02-25T15:11:55.538Z,24.40
2019-02-25T15:14:20.573Z,19.87
2019-02-25T15:16:47.980Z,25.20
2019-02-25T15:19:16.952Z,26.90
2019-02-25T15:21:47.227Z,27.77
2019-02-25T15:24:14.734Z,29.03
2019-02-25T15:26:43.204Z,28.07
2019-02-25T15:29:10.846Z,26.47
2019-02-25T15:31:38.242Z,28.90
2019-02-25T15:34:05.744Z,27.63
2019-02-25T15:36:33.435Z,27.53
2019-02-25T15:39:00.860Z,27.17
2019-02-25T15:41:28.391Z,26.83
2019-02-25T15:43:57.826Z,29.63
2019-02-25T15:46:27.044Z,30.87
2019-02-25T15:48:54.168Z,32.00
2019-02-25T15:51:21.786Z,33.03
2019-02-25T15:53:51.358Z,31.63
2019-02-25T15:56:18.196Z,29.03
2019-02-25T15:58:47.081Z,30.73
2019-02-25T16:01:14.691Z,33.70
2019-02-25T16:03:43.059Z,34.80
2019-02-25T16:06:11.727Z,36.27
2019-02-25T16:08:39.115Z,33.07
2019-02-25T16:11:07.018Z,31.40
2019-02-25T16:13:34.353Z,31.13
2019-02-25T16:16:01.777Z,32.03
2019-02-25T16:18:29.252Z,30.17
2019-02-25T16:20:57.471Z,28.10
2019-02-25T16:23:25.769Z,30.47
2019-02-25T16:25:55.300Z,34.47
2019-02-25T16:28:23.676Z,32.63
2019-02-25T16:30:51.420Z,33.30
2019-02-25T16:33:18.882Z,38.23
2019-02-25T16:35:47.038Z,45.70
2019-02-25T16:38:14.483Z,47.23
2019-02-25T16:40:41.951Z,50.63
2019-02-25T16:43:10.462Z,55.83
2019-02-25T16:45:40.133Z,58.47
2019-02-25T16:48:08.155Z,59.83
2019-02-25T16:50:36.740Z,61.80
2019-02-25T16:53:07.901Z,62.87
2019-02-25T16:55:33.589Z,66.63
2019-02-25T16:58:03.509Z,71.37
2019-02-25T17:00:32.407Z,67.33
2019-02-25T17:03:03.633Z,67.67
2019-02-25T17:05:29.330Z,65.83
2019-02-25T17:07:56.814Z,64.60
2019-02-25T17:10:27.106Z,64.80
2019-02-25T17:12:54.991Z,72.27
2019-02-25T17:15:26.260Z,69.87
2019-02-25T17:17:52.496Z,69.83
2019-02-25T17:20:20.372Z,70.83
2019-02-25T17:22:48.298Z,72.60
2019-02-25T17:25:17.234Z,69.57
2019-02-25T17:27:45.658Z,68.13
2019-02-25T17:30:17.980Z,67.57
2019-02-25T17:32:48.257Z,67.10
2019-02-25T17:35:21.328Z,62.20
2019-02-25T17:37:48.620Z,64.30
2019-02-25T17:40:16.496Z,64.27
2019-02-25T17:42:44.968Z,60.90
2019-02-25T17:45:14.502Z,58.47
2019-02-25T17:47:42.433Z,60.97
2019-02-25T17:50:12.103Z,57.60
2019-02-25T17:52:40.462Z,55.73
2019-02-25T17:55:10.560Z,53.90
2019-02-25T17:57:39.014Z,56.90
2019-02-25T18:00:11.538Z,54.50
2019-02-25T18:02:40.230Z,59.10
2019-02-25T18:05:09.409Z,58.27
2019-02-25T18:07:37.774Z,57.27
2019-02-25T18:10:09.741Z,58.60
2019-02-25T18:12:39.195Z,57.67
2019-02-25T18:15:09.423Z,61.27
2019-02-25T18:17:38.908Z,61.70
2019-02-25T18:20:09.277Z,70.30
2019-02-25T18:22:36.631Z,76.83
2019-02-25T18:25:05.388Z,80.17
2019-02-25T18:27:34.839Z,83.90
2019-02-25T18:30:01.946Z,78.90
2019-02-25T18:32:30.487Z,81.27
2019-02-25T18:35:00.402Z,82.10
2019-02-25T18:37:27.764Z,82.30
2019-02-25T18:39:56.503Z,81.37
2019-02-25T18:42:24.144Z,81.03
2019-02-25T18:44:53.412Z,82.77
2019-02-25T18:47:22.755Z,87.30
2019-02-25T18:49:52.117Z,85.30
2019-02-25T18:52:19.901Z,96.50
2019-02-25T18:54:47.468Z,92.73
2019-02-25T18:57:15.022Z,91.30
2019-02-25T18:59:42.380Z,91.70
2019-02-25T19:02:12.196Z,87.77
2019-02-25T19:04:40.864Z,85.27
2019-02-25T19:07:10.028Z,80.10
2019-02-25T19:09:37.692Z,81.50
2019-02-25T19:12:05.091Z,84.43
2019-02-25T19:14:33.184Z,82.23
2019-02-25T19:17:02.135Z,77.87
2019-02-25T19:19:31.434Z,78.37
2019-02-25T19:21:59.025Z,75.77
2019-02-25T19:24:26.544Z,75.47
2019-02-25T19:26:54.021Z,78.33
2019-02-25T19:29:21.784Z,85.23
2019-02-25T19:31:50.712Z,85.57
2019-02-25T19:34:18.096Z,89.67
2019-02-25T19:36:45.476Z,83.23
2019-02-25T19:39:14.363Z,82.93
2019-02-25T19:41:45.052Z,77.73
2019-02-25T19:44:12.753Z,78.10
2019-02-25T19:46:40.390Z,78.60
2019-02-25T19:49:09.252Z,77.93
2019-02-25T19:51:36.871Z,74.67
2019-02-25T19:54:05.178Z,76.23
2019-02-25T19:56:33.515Z,72.23
2019-02-25T19:59:03.086Z,73.13
2019-02-25T20:01:30.045Z,73.60
2019-02-25T20:03:59.566Z,75.17
2019-02-25T20:06:28.046Z,73.50
2019-02-25T20:08:56.559Z,69.93
2019-02-25T20:11:25.848Z,72.83
2019-02-25T20:13:54.048Z,73.00
2019-02-25T20:16:22.841Z,74.37
2019-02-25T20:18:51.045Z,73.63
2019-02-25T20:21:20.154Z,70.23
2019-02-25T20:23:49.495Z,71.17
2019-02-25T20:26:17.767Z,69.77
2019-02-25T20:28:48.072Z,64.03
2019-02-25T20:31:16.745Z,61.50
2019-02-25T20:33:44.226Z,68.83
2019-02-25T20:36:11.552Z,67.97
2019-02-25T20:38:39.713Z,67.83
2019-02-25T20:41:07.391Z,68.23
2019-02-25T20:43:34.806Z,68.80
2019-02-25T20:46:04.023Z,66.63
2019-02-25T20:48:31.237Z,63.57
2019-02-25T20:51:02.097Z,65.03
2019-02-25T20:53:34.002Z,64.80
2019-02-25T20:56:01.388Z,66.00
2019-02-25T20:58:28.825Z,63.23
2019-02-25T21:00:56.186Z,63.23
2019-02-25T21:03:25.487Z,63.87
2019-02-25T21:05:52.908Z,62.57
2019-02-25T21:08:21.388Z,63.83
2019-02-25T21:10:49.327Z,66.07
2019-02-25T21:13:17.172Z,64.30
2019-02-25T21:15:45.417Z,62.60
2019-02-25T21:18:12.930Z,66.07
2019-02-25T21:20:40.352Z,66.43
2019-02-25T21:23:10.096Z,67.90
2019-02-25T21:25:38.521Z,76.63
2019-02-25T21:28:06.805Z,76.43
2019-02-25T21:30:37.172Z,70.73
2019-02-25T21:33:03.928Z,72.53
2019-02-25T21:35:36.689Z,72.97
2019-02-25T21:38:00.421Z,71.97
2019-02-25T21:40:29.898Z,72.23
2019-02-25T21:42:56.963Z,74.57
2019-02-25T21:45:26.560Z,65.93
2019-02-25T21:47:56.035Z,68.67
2019-02-25T21:50:26.243Z,64.50
2019-02-25T21:52:51.615Z,64.03
2019-02-25T21:55:19.047Z,62.43
2019-02-25T21:57:46.770Z,67.17
2019-02-25T22:00:17.633Z,62.10
2019-02-25T22:02:45.860Z,67.07
2019-02-25T22:05:16.616Z,70.30
2019-02-25T22:07:43.425Z,73.00
2019-02-25T22:10:14.465Z,72.87
2019-02-25T22:12:43.863Z,70.47
2019-02-25T22:15:13.047Z,68.83
2019-02-25T22:17:43.378Z,62.37
2019-02-25T22:20:16.563Z,60.50
2019-02-25T22:22:43.833Z,62.33
2019-02-25T22:25:23.321Z,54.20
2019-02-25T22:27:50.779Z,53.40
2019-02-25T22:30:18.911Z,55.97
2019-02-25T22:32:46.311Z,57.13
2019-02-25T22:35:15.098Z,57.80
2019-02-25T22:37:46.836Z,66.63
2019-02-25T22:40:14.450Z,64.03
2019-02-25T22:42:41.582Z,70.73
2019-02-25T22:45:11.994Z,67.17
2019-02-25T22:47:39.550Z,73.97
2019-02-25T22:50:08.997Z,70.93
2019-02-25T22:52:37.417Z,66.90
2019-02-25T22:55:07.919Z,63.13
2019-02-25T22:57:33.832Z,63.70
2019-02-25T23:00:05.704Z,63.50
2019-02-25T23:02:30.281Z,58.60
2019-02-25T23:04:57.737Z,57.23
2019-02-25T23:07:25.382Z,54.77
2019-02-25T23:09:54.430Z,46.90
2019-02-25T23:12:24.128Z,44.73
2019-02-25T23:14:51.359Z,43.50
2019-02-25T23:17:18.689Z,42.93
2019-02-25T23:19:46.144Z,42.33
2019-02-25T23:22:13.476Z,39.77
2019-02-25T23:24:42.035Z,35.90
2019-02-25T23:27:09.933Z,35.77
2019-02-25T23:29:37.338Z,39.47
2019-02-25T23:32:05.014Z,37.17
2019-02-25T23:34:32.378Z,36.00
2019-02-25T23:36:59.779Z,37.03
2019-02-25T23:39:27.167Z,36.60
2019-02-25T23:41:54.590Z,37.63
2019-02-25T23:44:22.838Z,36.20
2019-02-25T23:46:55.406Z,36.43
2019-02-25T23:49:27.071Z,36.97
2019-02-25T23:51:49.115Z,36.67
2019-02-25T23:54:18.300Z,34.60
2019-02-25T23:56:47.717Z,37.87
2019-02-25T23:59:15.255Z,38.50
